• Join FlightAware (Why Join?)
  • Login
  • US Flag 
11:18AM EDT


 

Airport Tracker/Info


-or-


 

Live Flight TrackerFlight Track Log ✈ N700FL ✈ 26-Apr-2012 ✈ 27K - KLIT

Flight Track Log - Related Links

Times and Time Zones

All times are in EDT time to prevent confusion due to time zone crossing. See the N700FL flight status page for this flight to view local times or setup timezone preferences in your user account.

Time Position Orientation Groundspeed Altitude Reporting Facility
EDT Latitude Longitude Course Direction KTS MPH feet Rate Location/Type
12:27PM 38.2188 -84.4737 239° Southwest  Level FlightAware Approximate
12:27PM 38.1933 -84.5269 243° Southwest 199 229 5,500  Level Indianapolis Center
12:28PM 38.1614 -84.6056 243° Southwest 234 269 7,800 2,820 Climbing Indianapolis Center
12:29PM 38.1292 -84.6844 244° Southwest 259 298 11,200 2,340 Climbing Indianapolis Center
12:30PM 38.0928 -84.7789 243° Southwest 281 323 12,500 1,680 Climbing Indianapolis Center
12:31PM 38.0522 -84.8783 243° Southwest 306 352 14,600 1,680 Climbing Indianapolis Center
12:32PM 38.0072 -84.9883 244° Southwest 334 384 15,900 1,500 Climbing Indianapolis Center
12:33PM 37.9639 -85.1008 241° Southwest 357 411 17,700 1,740 Climbing Indianapolis Center
12:34PM 37.9144 -85.2156 243° Southwest 365 420 19,400 1,560 Climbing Indianapolis Center
12:35PM 37.8689 -85.3303 243° Southwest 365 420 20,900 1,440 Climbing Indianapolis Center
12:36PM 37.8211 -85.4475 243° Southwest 365 420 22,300 1,320 Climbing Indianapolis Center
12:37PM 37.7733 -85.5669 243° Southwest 380 437 23,600 1,080 Climbing Indianapolis Center
12:38PM 37.7233 -85.6892 242° Southwest 385 443 24,500 960 Climbing Indianapolis Center
12:40PM 37.6178 -85.9406 243° Southwest 424 488 26,500 1,020 Climbing Memphis Center
12:41PM 37.5603 -86.0825 242° Southwest 424 488 27,500 960 Climbing Memphis Center
12:42PM 37.5042 -86.2136 242° Southwest 424 488 28,500 960 Climbing Memphis Center
12:43PM 37.4503 -86.3417 243° Southwest 424 488 29,500 960 Climbing Memphis Center
12:44PM 37.3961 -86.4750 242° Southwest 429 494 30,500 1,020 Climbing Memphis Center
12:45PM 37.3397 -86.6056 242° Southwest 429 494 31,600 1,020 Climbing Memphis Center
12:46PM 37.2853 -86.7361 242° Southwest 429 494 32,600 960 Climbing Memphis Center
12:47PM 37.2306 -86.8661 242° Southwest 424 488 33,600 660 Climbing Memphis Center
12:48PM 37.1739 -87.0014 241° Southwest 429 494 34,000 180 Climbing Memphis Center
12:49PM 37.1150 -87.1364 242° Southwest 436 502 34,000  Level Memphis Center
12:50PM 37.0561 -87.2742 242° Southwest 442 509 34,000  Level Memphis Center
12:51PM 36.9989 -87.4086 240° Southwest 447 514 34,000  Level Memphis Center
12:52PM 36.9375 -87.5433 243° Southwest 447 514 34,000  Level Memphis Center
12:53PM 36.8800 -87.6828 241° Southwest 447 514 34,000  Level Memphis Center
12:54PM 36.8264 -87.8039 242° Southwest 447 514 34,000  Level Memphis Center
12:55PM 36.7667 -87.9431 240° Southwest 452 520 34,000  Level Memphis Center
12:56PM 36.7044 -88.0769 242° Southwest 457 526 34,000  Level Memphis Center
12:57PM 36.6406 -88.2261 242° Southwest 457 526 34,000  Level Memphis Center
12:58PM 36.5803 -88.3647 239° Southwest 457 526 34,000  Level Memphis Center
12:59PM 36.5158 -88.5006 241° Southwest 457 526 34,000  Level Memphis Center
01:00PM 36.4550 -88.6361 240° Southwest 457 526 34,000  Level Memphis Center
01:01PM 36.3922 -88.7714 241° Southwest 457 526 34,000  Level Memphis Center
01:02PM 36.3294 -88.9092 240° Southwest 457 526 34,000  Level Memphis Center
01:03PM 36.2725 -89.0311 239° Southwest 457 526 34,000  Level Memphis Center
01:04PM 36.2069 -89.1686 241° Southwest 463 533 34,000  Level Memphis Center
01:05PM 36.1436 -89.3083 241° Southwest 468 539 34,000  Level Memphis Center
01:06PM 36.0822 -89.4453 241° Southwest 468 539 34,000  Level Memphis Center
01:07PM 36.0206 -89.5819 240° Southwest 468 539 34,000  Level Memphis Center
01:08PM 35.9567 -89.7211 241° Southwest 468 539 34,000 -180 Level Memphis Center
01:09PM 35.8947 -89.8572 239° Southwest 468 539 33,700 -780 Descending Memphis Center
01:10PM 35.8286 -89.9933 240° Southwest 468 539 32,500 -1,380 Descending Memphis Center
01:11PM 35.7642 -90.1294 240° Southwest 463 533 31,000 -1,500 Descending Memphis Center
01:12PM 35.6997 -90.2675 242° Southwest 468 539 29,600 -1,440 Descending Memphis Center
01:13PM 35.6394 -90.4081 239° Southwest 468 539 28,200 -1,740 Descending Memphis Center
01:14PM 35.5725 -90.5458 240° Southwest 468 539 26,200 -2,040 Descending Memphis Center
01:15PM 35.5056 -90.6886 240° Southwest 475 547 24,200 -1,140 Descending Memphis Center
01:16PM 35.4403 -90.8258 239° Southwest 475 547 24,000 -120 Descending Memphis Center
01:17PM 35.3772 -90.9531 240° Southwest 456 525 24,000 -600 Level Memphis Center
01:18PM 35.3203 -91.0747 238° Southwest 456 525 22,800 -1,920 Descending Memphis Center
01:19PM 35.2444 -91.2214 239° Southwest 461 531 20,200 -2,880 Descending Memphis Center
01:20PM 35.1767 -91.3581 240° Southwest 468 539 17,100 -3,060 Descending Memphis Center
01:21PM 35.1214 -91.4742 239° Southwest 437 503 14,700 -2,760 Descending Memphis Center
01:22PM 35.0575 -91.6053 238° Southwest 425 489 12,100 -1,920 Descending Memphis Center
01:23PM 35.0000 -91.7183 239° Southwest 422 486 10,800 -960 Descending Memphis Center
01:24PM 34.9358 -91.8492 240° Southwest 428 493 10,100 -660 Descending Memphis Center
01:25PM 34.8953 -91.9344 238° Southwest 303 349 9,500 -3,060 Descending Memphis Center
01:26PM 34.8544 -92.0147 242° Southwest 266 306 4,400 -3,540 Descending Memphis Center
01:27PM 34.8267 -92.0775 237° Southwest 239 275 2,800 -1,020 Descending Memphis Center
01:28PM 34.7922 -92.1425 231° Southwest 213 245 2,500 -660 Descending Memphis Center
01:29PM 34.7689 -92.1772 230° Southwest 151 174 1,600 -1,020 Descending Memphis Center
01:30PM 34.7433 -92.2147 230° Southwest 131 151 500 -1,020 Descending Memphis Center